sensor_id;sensor_type;location;lat;lon;timestamp;pressure;altitude;pressure_sealevel;temperature;humidity
13594;BME280;6449;47.666;9.160;2023-01-25T00:00:26;98407.28;;;2.99;100.00
13594;BME280;6449;47.666;9.160;2023-01-25T00:05:20;98418.63;;;2.94;100.00
13594;BME280;6449;47.666;9.160;2023-01-25T00:10:15;98395.19;;;2.98;100.00
13594;BME280;6449;47.666;9.160;2023-01-25T00:15:09;98390.03;;;2.97;100.00
13594;BME280;6449;47.666;9.160;2023-01-25T00:20:04;98394.41;;;2.95;100.00
13594;BME280;6449;47.666;9.160;2023-01-25T00:24:57;98394.59;;;2.85;100.00
13594;BME280;6449;47.666;9.160;2023-01-25T00:29:52;98390.09;;;2.95;100.00
13594;BME280;6449;47.666;9.160;2023-01-25T00:34:47;98377.31;;;2.86;100.00
13594;BME280;6449;47.666;9.160;2023-01-25T00:39:41;98380.41;;;3.03;100.00
13594;BME280;6449;47.666;9.160;2023-01-25T00:44:34;98370.16;;;2.97;100.00
13594;BME280;6449;47.666;9.160;2023-01-25T00:49:30;98367.44;;;3.03;100.00
13594;BME280;6449;47.666;9.160;2023-01-25T00:54:25;98366.59;;;3.04;100.00
13594;BME280;6449;47.666;9.160;2023-01-25T00:59:19;98370.25;;;2.94;100.00
13594;BME280;6449;47.666;9.160;2023-01-25T01:04:12;98367.69;;;2.93;100.00
13594;BME280;6449;47.666;9.160;2023-01-25T01:09:12;98372.00;;;2.94;100.00
13594;BME280;6449;47.666;9.160;2023-01-25T01:14:07;98373.00;;;2.86;100.00
13594;BME280;6449;47.666;9.160;2023-01-25T01:19:00;98363.34;;;2.95;100.00
13594;BME280;6449;47.666;9.160;2023-01-25T01:23:55;98363.25;;;2.99;100.00
13594;BME280;6449;47.666;9.160;2023-01-25T01:28:50;98369.03;;;3.09;100.00
13594;BME280;6449;47.666;9.160;2023-01-25T01:33:44;98364.00;;;3.04;100.00
13594;BME280;6449;47.666;9.160;2023-01-25T01:38:41;98363.34;;;2.95;100.00
13594;BME280;6449;47.666;9.160;2023-01-25T01:43:35;98364.91;;;3.02;100.00
13594;BME280;6449;47.666;9.160;2023-01-25T01:48:38;98359.91;;;2.94;100.00
13594;BME280;6449;47.666;9.160;2023-01-25T01:53:33;98357.78;;;3.11;100.00
13594;BME280;6449;47.666;9.160;2023-01-25T01:58:28;98358.59;;;3.13;100.00
13594;BME280;6449;47.666;9.160;2023-01-25T02:03:23;98348.59;;;2.97;100.00
13594;BME280;6449;47.666;9.160;2023-01-25T02:08:19;98353.88;;;2.92;100.00
13594;BME280;6449;47.666;9.160;2023-01-25T02:13:13;98352.75;;;3.05;100.00
13594;BME280;6449;47.666;9.160;2023-01-25T02:18:07;98351.94;;;3.02;100.00
13594;BME280;6449;47.666;9.160;2023-01-25T02:23:12;98344.25;;;2.99;100.00
13594;BME280;6449;47.666;9.160;2023-01-25T02:28:17;98345.00;;;3.04;100.00
13594;BME280;6449;47.666;9.160;2023-01-25T02:33:12;98349.53;;;2.94;100.00
13594;BME280;6449;47.666;9.160;2023-01-25T02:38:08;98341.78;;;2.93;100.00
13594;BME280;6449;47.666;9.160;2023-01-25T02:43:01;98326.47;;;2.83;100.00
13594;BME280;6449;47.666;9.160;2023-01-25T02:47:56;98330.75;;;2.84;100.00
13594;BME280;6449;47.666;9.160;2023-01-25T02:52:50;98327.41;;;2.79;100.00
13594;BME280;6449;47.666;9.160;2023-01-25T02:57:43;98329.94;;;2.82;100.00
13594;BME280;6449;47.666;9.160;2023-01-25T03:02:37;98324.03;;;2.76;100.00
13594;BME280;6449;47.666;9.160;2023-01-25T03:07:31;98316.34;;;2.73;100.00
13594;BME280;6449;47.666;9.160;2023-01-25T03:12:25;98305.00;;;2.77;100.00
13594;BME280;6449;47.666;9.160;2023-01-25T03:17:18;98294.59;;;2.80;100.00
13594;BME280;6449;47.666;9.160;2023-01-25T03:22:12;98288.50;;;2.82;100.00
13594;BME280;6449;47.666;9.160;2023-01-25T03:27:07;98282.41;;;2.85;100.00
13594;BME280;6449;47.666;9.160;2023-01-25T03:32:05;98280.03;;;2.74;100.00
13594;BME280;6449;47.666;9.160;2023-01-25T03:36:59;98279.19;;;2.74;100.00
13594;BME280;6449;47.666;9.160;2023-01-25T03:41:52;98286.16;;;2.72;100.00
13594;BME280;6449;47.666;9.160;2023-01-25T03:46:47;98279.16;;;2.75;100.00
13594;BME280;6449;47.666;9.160;2023-01-25T03:51:40;98279.16;;;2.75;100.00
13594;BME280;6449;47.666;9.160;2023-01-25T03:56:33;98263.72;;;2.71;100.00
13594;BME280;6449;47.666;9.160;2023-01-25T04:01:27;98260.13;;;2.78;100.00
13594;BME280;6449;47.666;9.160;2023-01-25T04:06:22;98262.84;;;2.72;100.00
13594;BME280;6449;47.666;9.160;2023-01-25T04:11:15;98274.91;;;2.73;100.00
13594;BME280;6449;47.666;9.160;2023-01-25T04:16:09;98269.25;;;2.93;100.00
13594;BME280;6449;47.666;9.160;2023-01-25T04:21:03;98264.81;;;2.99;100.00
13594;BME280;6449;47.666;9.160;2023-01-25T04:26:01;98255.56;;;2.87;100.00
13594;BME280;6449;47.666;9.160;2023-01-25T04:30:56;98249.63;;;2.84;100.00
13594;BME280;6449;47.666;9.160;2023-01-25T04:35:51;98263.06;;;2.98;100.00
13594;BME280;6449;47.666;9.160;2023-01-25T04:40:44;98257.44;;;2.81;100.00
13594;BME280;6449;47.666;9.160;2023-01-25T04:45:39;98249.78;;;2.76;100.00
13594;BME280;6449;47.666;9.160;2023-01-25T04:50:32;98259.28;;;2.76;100.00
13594;BME280;6449;47.666;9.160;2023-01-25T04:55:26;98264.78;;;2.62;100.00
13594;BME280;6449;47.666;9.160;2023-01-25T05:00:20;98254.91;;;2.79;100.00
13594;BME280;6449;47.666;9.160;2023-01-25T05:05:15;98261.13;;;2.72;100.00
13594;BME280;6449;47.666;9.160;2023-01-25T05:10:10;98256.88;;;2.68;100.00
13594;BME280;6449;47.666;9.160;2023-01-25T05:15:06;98254.94;;;2.78;100.00
13594;BME280;6449;47.666;9.160;2023-01-25T05:20:00;98266.25;;;2.74;100.00
13594;BME280;6449;47.666;9.160;2023-01-25T05:24:59;98267.16;;;2.71;100.00
13594;BME280;6449;47.666;9.160;2023-01-25T05:29:57;98256.03;;;2.68;100.00
13594;BME280;6449;47.666;9.160;2023-01-25T05:34:51;98257.88;;;2.62;100.00
13594;BME280;6449;47.666;9.160;2023-01-25T05:39:44;98250.72;;;2.74;100.00
13594;BME280;6449;47.666;9.160;2023-01-25T05:44:40;98252.28;;;2.81;100.00
13594;BME280;6449;47.666;9.160;2023-01-25T05:49:35;98254.06;;;2.79;100.00
13594;BME280;6449;47.666;9.160;2023-01-25T05:54:30;98248.78;;;2.82;100.00
13594;BME280;6449;47.666;9.160;2023-01-25T05:59:24;98257.53;;;2.76;100.00
13594;BME280;6449;47.666;9.160;2023-01-25T06:04:19;98250.81;;;2.69;100.00
13594;BME280;6449;47.666;9.160;2023-01-25T06:09:13;98259.56;;;2.63;100.00
13594;BME280;6449;47.666;9.160;2023-01-25T06:14:07;98250.81;;;2.69;100.00
13594;BME280;6449;47.666;9.160;2023-01-25T06:19:00;98252.28;;;2.81;100.00
13594;BME280;6449;47.666;9.160;2023-01-25T06:23:55;98253.38;;;2.71;100.00
13594;BME280;6449;47.666;9.160;2023-01-25T06:28:49;98262.13;;;2.65;100.00
13594;BME280;6449;47.666;9.160;2023-01-25T06:33:48;98258.63;;;2.68;100.00
13594;BME280;6449;47.666;9.160;2023-01-25T06:38:42;98250.81;;;2.69;100.00
13594;BME280;6449;47.666;9.160;2023-01-25T06:43:38;98259.38;;;2.71;100.00
13594;BME280;6449;47.666;9.160;2023-01-25T06:48:32;98262.13;;;2.65;100.00
13594;BME280;6449;47.666;9.160;2023-01-25T06:53:28;98249.88;;;2.73;100.00
13594;BME280;6449;47.666;9.160;2023-01-25T06:58:22;98254.22;;;2.71;100.00
13594;BME280;6449;47.666;9.160;2023-01-25T07:03:17;98257.53;;;2.76;100.00
13594;BME280;6449;47.666;9.160;2023-01-25T07:08:10;98244.69;;;2.73;100.00
13594;BME280;6449;47.666;9.160;2023-01-25T07:13:04;98246.38;;;2.74;100.00
13594;BME280;6449;47.666;9.160;2023-01-25T07:17:57;98258.47;;;2.74;100.00
13594;BME280;6449;47.666;9.160;2023-01-25T07:23:08;98248.41;;;2.61;100.00
13594;BME280;6449;47.666;9.160;2023-01-25T07:28:04;98244.22;;;2.54;100.00
13594;BME280;6449;47.666;9.160;2023-01-25T07:33:02;98237.31;;;2.56;100.00
13594;BME280;6449;47.666;9.160;2023-01-25T07:37:56;98227.56;;;2.68;100.00
13594;BME280;6449;47.666;9.160;2023-01-25T07:42:53;98236.22;;;2.67;100.00
13594;BME280;6449;47.666;9.160;2023-01-25T07:47:50;98232.66;;;2.71;100.00
13594;BME280;6449;47.666;9.160;2023-01-25T07:52:43;98238.41;;;2.83;100.00
13594;BME280;6449;47.666;9.160;2023-01-25T07:57:37;98238.81;;;2.65;100.00
13594;BME280;6449;47.666;9.160;2023-01-25T08:02:32;98246.59;;;2.65;100.00
13594;BME280;6449;47.666;9.160;2023-01-25T08:07:28;98236.06;;;2.73;100.00
13594;BME280;6449;47.666;9.160;2023-01-25T08:12:21;98232.78;;;2.65;100.00
13594;BME280;6449;47.666;9.160;2023-01-25T08:17:16;98238.91;;;2.60;100.00
13594;BME280;6449;47.666;9.160;2023-01-25T08:22:11;98222.44;;;2.65;100.00
13594;BME280;6449;47.666;9.160;2023-01-25T08:27:05;98218.91;;;2.69;100.00
13594;BME280;6449;47.666;9.160;2023-01-25T08:31:58;98216.50;;;2.61;100.00
13594;BME280;6449;47.666;9.160;2023-01-25T08:36:55;98216.13;;;2.76;100.00
13594;BME280;6449;47.666;9.160;2023-01-25T08:41:50;98212.09;;;2.65;100.00
13594;BME280;6449;47.666;9.160;2023-01-25T08:46:43;98204.50;;;2.57;100.00
13594;BME280;6449;47.666;9.160;2023-01-25T08:51:37;98207.59;;;2.71;100.00
13594;BME280;6449;47.666;9.160;2023-01-25T08:56:30;98205.09;;;2.68;100.00
13594;BME280;6449;47.666;9.160;2023-01-25T09:01:25;98199.84;;;2.71;100.00
13594;BME280;6449;47.666;9.160;2023-01-25T09:06:19;98179.84;;;2.78;100.00
13594;BME280;6449;47.666;9.160;2023-01-25T09:11:15;98186.97;;;2.68;100.00
13594;BME280;6449;47.666;9.160;2023-01-25T09:16:11;98178.22;;;2.74;100.00
13594;BME280;6449;47.666;9.160;2023-01-25T09:21:08;98171.28;;;2.74;100.00
13594;BME280;6449;47.666;9.160;2023-01-25T09:26:03;98159.41;;;2.67;100.00
13594;BME280;6449;47.666;9.160;2023-01-25T09:30:59;98167.91;;;2.71;100.00
13594;BME280;6449;47.666;9.160;2023-01-25T09:36:13;98168.34;;;2.89;100.00
13594;BME280;6449;47.666;9.160;2023-01-25T09:41:22;98163.06;;;2.93;100.00
13594;BME280;6449;47.666;9.160;2023-01-25T09:46:24;98169.19;;;2.90;100.00
13594;BME280;6449;47.666;9.160;2023-01-25T09:51:31;98175.53;;;2.77;100.00
13594;BME280;6449;47.666;9.160;2023-01-25T09:56:33;98171.09;;;2.82;100.00
13594;BME280;6449;47.666;9.160;2023-01-25T10:01:37;98164.47;;;2.72;100.00
13594;BME280;6449;47.666;9.160;2023-01-25T10:06:41;98170.59;;;2.68;100.00
13594;BME280;6449;47.666;9.160;2023-01-25T10:11:50;98167.13;;;2.69;100.00
13594;BME280;6449;47.666;9.160;2023-01-25T10:16:58;98162.56;;;2.78;100.00
13594;BME280;6449;47.666;9.160;2023-01-25T10:22:02;98150.38;;;2.83;100.00
13594;BME280;6449;47.666;9.160;2023-01-25T10:27:11;98153.91;;;2.79;100.00
13594;BME280;6449;47.666;9.160;2023-01-25T10:32:16;98159.19;;;2.75;100.00
13594;BME280;6449;47.666;9.160;2023-01-25T10:37:15;98154.50;;;2.91;100.00
13594;BME280;6449;47.666;9.160;2023-01-25T10:42:13;98152.84;;;2.88;100.00
13594;BME280;6449;47.666;9.160;2023-01-25T10:47:16;98151.09;;;2.88;100.00
13594;BME280;6449;47.666;9.160;2023-01-25T10:52:16;98144.88;;;2.96;100.00
13594;BME280;6449;47.666;9.160;2023-01-25T10:57:16;98145.47;;;2.73;100.00
13594;BME280;6449;47.666;9.160;2023-01-25T11:02:42;98134.75;;;2.86;100.00
13594;BME280;6449;47.666;9.160;2023-01-25T11:07:37;98136.00;;;2.72;100.00
13594;BME280;6449;47.666;9.160;2023-01-25T11:12:31;98114.41;;;2.71;100.00
13594;BME280;6449;47.666;9.160;2023-01-25T11:17:28;98111.69;;;2.76;100.00
13594;BME280;6449;47.666;9.160;2023-01-25T11:22:23;98099.75;;;2.72;100.00
13594;BME280;6449;47.666;9.160;2023-01-25T11:27:21;98094.41;;;2.78;100.00
13594;BME280;6449;47.666;9.160;2023-01-25T11:32:18;98095.31;;;2.75;100.00
13594;BME280;6449;47.666;9.160;2023-01-25T11:37:45;98103.31;;;2.66;100.00
13594;BME280;6449;47.666;9.160;2023-01-25T11:43:02;98083.38;;;2.70;100.00
13594;BME280;6449;47.666;9.160;2023-01-25T11:48:20;98081.47;;;2.78;100.00
13594;BME280;6449;47.666;9.160;2023-01-25T11:53:53;98066.78;;;2.77;100.00
13594;BME280;6449;47.666;9.160;2023-01-25T11:59:15;98062.66;;;3.02;100.00
13594;BME280;6449;47.666;9.160;2023-01-25T12:04:40;98059.56;;;2.89;100.00
13594;BME280;6449;47.666;9.160;2023-01-25T12:09:57;98048.09;;;2.66;100.00
13594;BME280;6449;47.666;9.160;2023-01-25T12:15:23;98039.97;;;2.79;100.00
13594;BME280;6449;47.666;9.160;2023-01-25T12:20:37;98019.63;;;2.66;100.00
13594;BME280;6449;47.666;9.160;2023-01-25T12:25:47;98020.63;;;2.60;100.00
13594;BME280;6449;47.666;9.160;2023-01-25T12:30:50;98000.78;;;2.60;100.00
13594;BME280;6449;47.666;9.160;2023-01-25T12:35:53;97990.84;;;2.78;100.00
13594;BME280;6449;47.666;9.160;2023-01-25T12:40:54;97986.38;;;2.83;100.00
13594;BME280;6449;47.666;9.160;2023-01-25T12:45:53;97980.38;;;2.81;100.00
13594;BME280;6449;47.666;9.160;2023-01-25T12:50:53;97979.19;;;2.61;100.00
13594;BME280;6449;47.666;9.160;2023-01-25T12:55:48;97970.50;;;2.64;100.00
13594;BME280;6449;47.666;9.160;2023-01-25T13:00:48;97962.47;;;2.73;100.00
13594;BME280;6449;47.666;9.160;2023-01-25T13:05:52;97958.31;;;2.68;100.00
13594;BME280;6449;47.666;9.160;2023-01-25T13:11:02;97956.53;;;2.70;100.00
13594;BME280;6449;47.666;9.160;2023-01-25T13:16:29;97954.00;;;2.68;100.00
13594;BME280;6449;47.666;9.160;2023-01-25T13:21:46;97965.38;;;2.62;100.00
13594;BME280;6449;47.666;9.160;2023-01-25T13:27:03;97956.69;;;2.63;100.00
13594;BME280;6449;47.666;9.160;2023-01-25T13:31:58;97948.59;;;2.76;100.00
13594;BME280;6449;47.666;9.160;2023-01-25T13:36:54;97944.44;;;2.70;100.00
13594;BME280;6449;47.666;9.160;2023-01-25T13:41:58;97950.22;;;2.80;100.00
13594;BME280;6449;47.666;9.160;2023-01-25T13:46:53;97942.69;;;2.71;100.00
13594;BME280;6449;47.666;9.160;2023-01-25T13:51:47;97941.78;;;2.73;100.00
13594;BME280;6449;47.666;9.160;2023-01-25T13:56:42;97937.91;;;2.88;100.00
13594;BME280;6449;47.666;9.160;2023-01-25T14:01:36;97938.34;;;3.02;100.00
13594;BME280;6449;47.666;9.160;2023-01-25T14:06:33;97936.34;;;2.82;100.00
13594;BME280;6449;47.666;9.160;2023-01-25T14:11:30;97931.78;;;2.91;100.00
13594;BME280;6449;47.666;9.160;2023-01-25T14:16:28;97932.38;;;2.69;100.00
13594;BME280;6449;47.666;9.160;2023-01-25T14:21:22;97924.50;;;2.74;100.00
13594;BME280;6449;47.666;9.160;2023-01-25T14:26:20;97927.13;;;2.72;100.00
13594;BME280;6449;47.666;9.160;2023-01-25T14:31:22;97927.66;;;2.52;100.00
13594;BME280;6449;47.666;9.160;2023-01-25T14:36:17;97927.44;;;2.61;100.00
13594;BME280;6449;47.666;9.160;2023-01-25T14:41:19;97921.34;;;2.62;100.00
13594;BME280;6449;47.666;9.160;2023-01-25T14:46:26;97925.50;;;2.68;100.00
13594;BME280;6449;47.666;9.160;2023-01-25T14:51:26;97915.28;;;2.63;100.00
13594;BME280;6449;47.666;9.160;2023-01-25T14:56:34;97914.59;;;2.57;100.00
13594;BME280;6449;47.666;9.160;2023-01-25T15:01:35;97905.69;;;2.67;100.00
13594;BME280;6449;47.666;9.160;2023-01-25T15:06:31;97896.00;;;2.74;100.00
13594;BME280;6449;47.666;9.160;2023-01-25T15:11:31;97893.72;;;2.63;100.00
13594;BME280;6449;47.666;9.160;2023-01-25T15:16:33;97879.00;;;2.65;100.00
13594;BME280;6449;47.666;9.160;2023-01-25T15:21:31;97870.31;;;2.68;100.00
13594;BME280;6449;47.666;9.160;2023-01-25T15:26:27;97865.00;;;2.72;100.00
13594;BME280;6449;47.666;9.160;2023-01-25T15:31:25;97869.22;;;2.75;100.00
13594;BME280;6449;47.666;9.160;2023-01-25T15:36:19;97855.28;;;2.49;100.00
13594;BME280;6449;47.666;9.160;2023-01-25T15:41:14;97856.31;;;2.44;100.00
13594;BME280;6449;47.666;9.160;2023-01-25T15:46:16;97850.69;;;2.59;100.00
13594;BME280;6449;47.666;9.160;2023-01-25T15:51:11;97859.31;;;2.59;100.00
13594;BME280;6449;47.666;9.160;2023-01-25T15:56:13;97855.81;;;2.60;100.00
13594;BME280;6449;47.666;9.160;2023-01-25T16:01:09;97844.50;;;2.65;100.00
13594;BME280;6449;47.666;9.160;2023-01-25T16:06:24;97844.84;;;2.52;100.00
13594;BME280;6449;47.666;9.160;2023-01-25T16:11:20;97837.88;;;2.56;100.00
13594;BME280;6449;47.666;9.160;2023-01-25T16:16:18;97844.13;;;2.47;100.00
13594;BME280;6449;47.666;9.160;2023-01-25T16:21:15;97835.66;;;2.42;100.00
13594;BME280;6449;47.666;9.160;2023-01-25T16:26:17;97844.44;;;2.36;100.00
13594;BME280;6449;47.666;9.160;2023-01-25T16:31:13;97838.19;;;2.44;100.00
13594;BME280;6449;47.666;9.160;2023-01-25T16:36:24;97834.09;;;2.36;100.00
13594;BME280;6449;47.666;9.160;2023-01-25T16:41:17;97828.19;;;2.31;100.00
13594;BME280;6449;47.666;9.160;2023-01-25T16:46:16;97834.75;;;2.43;100.00
13594;BME280;6449;47.666;9.160;2023-01-25T16:51:16;97822.91;;;2.36;100.00
13594;BME280;6449;47.666;9.160;2023-01-25T16:56:16;97821.09;;;2.38;100.00
13594;BME280;6449;47.666;9.160;2023-01-25T17:01:11;97802.94;;;2.40;100.00
13594;BME280;6449;47.666;9.160;2023-01-25T17:06:06;97805.63;;;2.36;100.00
13594;BME280;6449;47.666;9.160;2023-01-25T17:11:03;97799.59;;;2.36;100.00
13594;BME280;6449;47.666;9.160;2023-01-25T17:15:58;97789.13;;;2.41;100.00
13594;BME280;6449;47.666;9.160;2023-01-25T17:20:58;97792.19;;;2.53;100.00
13594;BME280;6449;47.666;9.160;2023-01-25T17:25:51;97791.22;;;2.57;100.00
13594;BME280;6449;47.666;9.160;2023-01-25T17:30:44;97791.22;;;2.57;100.00
13594;BME280;6449;47.666;9.160;2023-01-25T17:35:40;97785.41;;;2.49;100.00
13594;BME280;6449;47.666;9.160;2023-01-25T17:40:33;97773.56;;;2.42;100.00
13594;BME280;6449;47.666;9.160;2023-01-25T17:45:27;97780.72;;;2.32;100.00
13594;BME280;6449;47.666;9.160;2023-01-25T17:50:20;97771.53;;;2.52;100.00
13594;BME280;6449;47.666;9.160;2023-01-25T17:55:15;97766.50;;;2.47;100.00
13594;BME280;6449;47.666;9.160;2023-01-25T18:00:11;97763.72;;;2.53;100.00
13594;BME280;6449;47.666;9.160;2023-01-25T18:05:05;97756.94;;;2.49;100.00
13594;BME280;6449;47.666;9.160;2023-01-25T18:09:59;97749.56;;;2.37;100.00
13594;BME280;6449;47.666;9.160;2023-01-25T18:14:53;97747.09;;;2.32;100.00
13594;BME280;6449;47.666;9.160;2023-01-25T18:19:47;97737.13;;;2.48;100.00
13594;BME280;6449;47.666;9.160;2023-01-25T18:24:41;97735.78;;;2.36;100.00
13594;BME280;6449;47.666;9.160;2023-01-25T18:29:45;97723.63;;;2.39;100.00
13594;BME280;6449;47.666;9.160;2023-01-25T18:34:40;97725.38;;;2.38;100.00
13594;BME280;6449;47.666;9.160;2023-01-25T18:39:33;97719.13;;;2.45;100.00
13594;BME280;6449;47.666;9.160;2023-01-25T18:44:27;97720.25;;;2.36;100.00
13594;BME280;6449;47.666;9.160;2023-01-25T18:49:21;97713.97;;;2.45;100.00
13594;BME280;6449;47.666;9.160;2023-01-25T18:54:16;97714.81;;;2.46;100.00
13594;BME280;6449;47.666;9.160;2023-01-25T18:59:09;97709.72;;;2.43;100.00
13594;BME280;6449;47.666;9.160;2023-01-25T19:04:03;97706.00;;;2.51;100.00
13594;BME280;6449;47.666;9.160;2023-01-25T19:08:58;97706.03;;;2.22;100.00
13594;BME280;6449;47.666;9.160;2023-01-25T19:13:53;97705.56;;;2.37;100.00
13594;BME280;6449;47.666;9.160;2023-01-25T19:18:49;97695.28;;;2.34;100.00
13594;BME280;6449;47.666;9.160;2023-01-25T19:23:44;97694.88;;;2.20;100.00
13594;BME280;6449;47.666;9.160;2023-01-25T19:28:38;97688.03;;;2.17;100.00
13594;BME280;6449;47.666;9.160;2023-01-25T19:33:34;97685.50;;;2.16;100.00
13594;BME280;6449;47.666;9.160;2023-01-25T19:38:27;97674.84;;;2.26;100.00
13594;BME280;6449;47.666;9.160;2023-01-25T19:43:21;97671.41;;;2.26;100.00
13594;BME280;6449;47.666;9.160;2023-01-25T19:48:14;97668.44;;;2.38;100.00
13594;BME280;6449;47.666;9.160;2023-01-25T19:53:09;97671.84;;;2.40;100.00
13594;BME280;6449;47.666;9.160;2023-01-25T19:58:03;97664.44;;;2.00;100.00
13594;BME280;6449;47.666;9.160;2023-01-25T20:02:56;97651.84;;;2.17;100.00
13594;BME280;6449;47.666;9.160;2023-01-25T20:08:06;97647.03;;;2.05;100.00
13594;BME280;6449;47.666;9.160;2023-01-25T20:13:01;97643.50;;;2.07;100.00
13594;BME280;6449;47.666;9.160;2023-01-25T20:17:54;97637.31;;;2.13;100.00
13594;BME280;6449;47.666;9.160;2023-01-25T20:22:48;97638.19;;;2.12;100.00
13594;BME280;6449;47.666;9.160;2023-01-25T20:27:43;97632.75;;;1.93;100.00
13594;BME280;6449;47.666;9.160;2023-01-25T20:32:38;97632.94;;;1.87;100.00
13594;BME280;6449;47.666;9.160;2023-01-25T20:37:31;97633.97;;;2.09;100.00
13594;BME280;6449;47.666;9.160;2023-01-25T20:42:25;97625.03;;;2.20;100.00
13594;BME280;6449;47.666;9.160;2023-01-25T20:47:18;97624.91;;;2.24;100.00
13594;BME280;6449;47.666;9.160;2023-01-25T20:52:13;97620.53;;;2.26;100.00
13594;BME280;6449;47.666;9.160;2023-01-25T20:57:07;97623.38;;;2.17;100.00
13594;BME280;6449;47.666;9.160;2023-01-25T21:02:00;97619.22;;;2.13;100.00
13594;BME280;6449;47.666;9.160;2023-01-25T21:06:54;97611.75;;;2.02;100.00
13594;BME280;6449;47.666;9.160;2023-01-25T21:11:48;97605.19;;;1.92;100.00
13594;BME280;6449;47.666;9.160;2023-01-25T21:16:42;97604.56;;;1.84;100.00
13594;BME280;6449;47.666;9.160;2023-01-25T21:21:35;97594.63;;;1.70;100.00
13594;BME280;6449;47.666;9.160;2023-01-25T21:26:32;97593.84;;;1.68;100.00
13594;BME280;6449;47.666;9.160;2023-01-25T21:31:29;97584.53;;;1.63;100.00
13594;BME280;6449;47.666;9.160;2023-01-25T21:36:24;97580.91;;;1.68;100.00
13594;BME280;6449;47.666;9.160;2023-01-25T21:41:20;97581.69;;;1.72;100.00
13594;BME280;6449;47.666;9.160;2023-01-25T21:46:15;97579.84;;;1.75;100.00
13594;BME280;6449;47.666;9.160;2023-01-25T21:51:17;97572.19;;;1.72;100.00
13594;BME280;6449;47.666;9.160;2023-01-25T21:56:30;97576.47;;;1.73;100.00
13594;BME280;6449;47.666;9.160;2023-01-25T22:01:24;97573.34;;;1.90;100.00
13594;BME280;6449;47.666;9.160;2023-01-25T22:06:18;97563.78;;;1.64;100.00
13594;BME280;6449;47.666;9.160;2023-01-25T22:16:19;97564.38;;;1.74;100.00
13594;BME280;6449;47.666;9.160;2023-01-25T22:21:18;97559.78;;;1.55;100.00
13594;BME280;6449;47.666;9.160;2023-01-25T22:26:15;97556.03;;;1.64;100.00
13594;BME280;6449;47.666;9.160;2023-01-25T22:31:08;97547.13;;;1.74;100.00
13594;BME280;6449;47.666;9.160;2023-01-25T22:36:02;97557.66;;;1.68;100.00
13594;BME280;6449;47.666;9.160;2023-01-25T22:41:03;97550.84;;;1.66;100.00
13594;BME280;6449;47.666;9.160;2023-01-25T22:45:57;97551.56;;;1.41;100.00
13594;BME280;6449;47.666;9.160;2023-01-25T22:50:50;97545.00;;;1.59;100.00
13594;BME280;6449;47.666;9.160;2023-01-25T22:55:44;97538.91;;;1.62;100.00
13594;BME280;6449;47.666;9.160;2023-01-25T23:00:39;97521.41;;;1.70;100.00
13594;BME280;6449;47.666;9.160;2023-01-25T23:05:32;97519.13;;;1.89;100.00
13594;BME280;6449;47.666;9.160;2023-01-25T23:10:26;97523.53;;;1.85;100.00
13594;BME280;6449;47.666;9.160;2023-01-25T23:15:19;97512.09;;;1.66;100.00
13594;BME280;6449;47.666;9.160;2023-01-25T23:20:14;97495.03;;;1.60;100.00
13594;BME280;6449;47.666;9.160;2023-01-25T23:25:09;97502.09;;;1.55;100.00
13594;BME280;6449;47.666;9.160;2023-01-25T23:30:04;97495.56;;;1.42;100.00
13594;BME280;6449;47.666;9.160;2023-01-25T23:34:58;97490.78;;;1.57;100.00
13594;BME280;6449;47.666;9.160;2023-01-25T23:39:52;97483.44;;;1.44;100.00
13594;BME280;6449;47.666;9.160;2023-01-25T23:44:46;97474.16;;;1.38;100.00
13594;BME280;6449;47.666;9.160;2023-01-25T23:49:39;97473.50;;;1.31;100.00
13594;BME280;6449;47.666;9.160;2023-01-25T23:54:33;97470.78;;;1.36;100.00
13594;BME280;6449;47.666;9.160;2023-01-25T23:59:28;97457.25;;;1.28;100.00
